sensor_id;sensor_type;location;lat;lon;timestamp;temperature;humidity
59847;DHT22;45728;48.788;2.302;2023-05-24T00:00:41;11.70;99.90
59847;DHT22;45728;48.788;2.302;2023-05-24T00:03:08;11.70;99.90
59847;DHT22;45728;48.788;2.302;2023-05-24T00:05:34;11.60;99.90
59847;DHT22;45728;48.788;2.302;2023-05-24T00:08:03;11.60;99.90
59847;DHT22;45728;48.788;2.302;2023-05-24T00:10:29;11.50;99.90
59847;DHT22;45728;48.788;2.302;2023-05-24T00:12:55;11.50;99.90
59847;DHT22;45728;48.788;2.302;2023-05-24T00:15:21;11.50;99.90
59847;DHT22;45728;48.788;2.302;2023-05-24T00:17:48;11.50;99.90
59847;DHT22;45728;48.788;2.302;2023-05-24T00:20:14;11.40;99.90
59847;DHT22;45728;48.788;2.302;2023-05-24T00:22:40;11.40;99.90
59847;DHT22;45728;48.788;2.302;2023-05-24T00:25:07;11.30;99.90
59847;DHT22;45728;48.788;2.302;2023-05-24T00:27:33;11.30;99.90
59847;DHT22;45728;48.788;2.302;2023-05-24T00:30:03;11.30;99.90
59847;DHT22;45728;48.788;2.302;2023-05-24T00:32:29;11.20;99.90
59847;DHT22;45728;48.788;2.302;2023-05-24T00:34:55;11.20;99.90
59847;DHT22;45728;48.788;2.302;2023-05-24T00:37:21;11.20;99.90
59847;DHT22;45728;48.788;2.302;2023-05-24T00:39:48;11.20;99.90
59847;DHT22;45728;48.788;2.302;2023-05-24T00:42:14;11.30;99.90
59847;DHT22;45728;48.788;2.302;2023-05-24T00:44:40;11.20;99.90
59847;DHT22;45728;48.788;2.302;2023-05-24T00:47:06;11.20;99.90
59847;DHT22;45728;48.788;2.302;2023-05-24T00:49:33;11.10;99.90
59847;DHT22;45728;48.788;2.302;2023-05-24T00:51:59;11.10;99.90
59847;DHT22;45728;48.788;2.302;2023-05-24T00:54:26;11.10;99.90
59847;DHT22;45728;48.788;2.302;2023-05-24T00:56:53;11.10;99.90
59847;DHT22;45728;48.788;2.302;2023-05-24T00:59:22;11.10;99.90
59847;DHT22;45728;48.788;2.302;2023-05-24T01:01:48;11.00;99.90
59847;DHT22;45728;48.788;2.302;2023-05-24T01:04:14;11.00;99.90
59847;DHT22;45728;48.788;2.302;2023-05-24T01:10:02;11.00;99.90
59847;DHT22;45728;48.788;2.302;2023-05-24T01:15:24;10.90;99.90
59847;DHT22;45728;48.788;2.302;2023-05-24T01:20:28;10.80;99.90
59847;DHT22;45728;48.788;2.302;2023-05-24T01:28:07;10.70;99.90
59847;DHT22;45728;48.788;2.302;2023-05-24T01:30:34;10.70;99.90
59847;DHT22;45728;48.788;2.302;2023-05-24T01:33:01;10.60;99.90
59847;DHT22;45728;48.788;2.302;2023-05-24T01:35:28;10.70;99.90
59847;DHT22;45728;48.788;2.302;2023-05-24T01:37:54;10.60;99.90
59847;DHT22;45728;48.788;2.302;2023-05-24T01:40:20;10.60;99.90
59847;DHT22;45728;48.788;2.302;2023-05-24T01:43:15;10.50;99.90
59847;DHT22;45728;48.788;2.302;2023-05-24T01:50:57;10.50;99.90
59847;DHT22;45728;48.788;2.302;2023-05-24T01:53:25;10.40;99.90
59847;DHT22;45728;48.788;2.302;2023-05-24T01:55:54;10.40;99.90
59847;DHT22;45728;48.788;2.302;2023-05-24T01:58:22;10.40;99.90
59847;DHT22;45728;48.788;2.302;2023-05-24T02:00:50;10.40;99.90
59847;DHT22;45728;48.788;2.302;2023-05-24T02:03:17;10.40;99.90
59847;DHT22;45728;48.788;2.302;2023-05-24T02:05:45;10.40;99.90
59847;DHT22;45728;48.788;2.302;2023-05-24T02:08:11;10.40;99.90
59847;DHT22;45728;48.788;2.302;2023-05-24T02:10:38;10.40;99.90
59847;DHT22;45728;48.788;2.302;2023-05-24T02:13:05;10.40;99.90
59847;DHT22;45728;48.788;2.302;2023-05-24T02:15:32;10.30;99.90
59847;DHT22;45728;48.788;2.302;2023-05-24T02:18:00;10.30;99.90
59847;DHT22;45728;48.788;2.302;2023-05-24T02:20:27;10.30;99.90
59847;DHT22;45728;48.788;2.302;2023-05-24T02:22:58;10.30;99.90
59847;DHT22;45728;48.788;2.302;2023-05-24T02:25:24;10.30;99.90
59847;DHT22;45728;48.788;2.302;2023-05-24T02:27:51;10.30;99.90
59847;DHT22;45728;48.788;2.302;2023-05-24T02:30:17;10.20;99.90
59847;DHT22;45728;48.788;2.302;2023-05-24T02:32:43;10.20;99.90
59847;DHT22;45728;48.788;2.302;2023-05-24T02:35:10;10.20;99.90
59847;DHT22;45728;48.788;2.302;2023-05-24T02:37:36;10.20;99.90
59847;DHT22;45728;48.788;2.302;2023-05-24T02:40:02;10.20;99.90
59847;DHT22;45728;48.788;2.302;2023-05-24T02:42:28;10.10;99.90
59847;DHT22;45728;48.788;2.302;2023-05-24T02:44:55;10.10;99.90
59847;DHT22;45728;48.788;2.302;2023-05-24T02:47:21;10.10;99.90
59847;DHT22;45728;48.788;2.302;2023-05-24T02:49:47;10.10;99.90
59847;DHT22;45728;48.788;2.302;2023-05-24T02:52:13;10.10;99.90
59847;DHT22;45728;48.788;2.302;2023-05-24T02:54:39;10.10;99.90
59847;DHT22;45728;48.788;2.302;2023-05-24T02:57:05;10.10;99.90
59847;DHT22;45728;48.788;2.302;2023-05-24T02:59:31;10.10;99.90
59847;DHT22;45728;48.788;2.302;2023-05-24T03:01:58;10.00;99.90
59847;DHT22;45728;48.788;2.302;2023-05-24T03:04:24;10.00;99.90
59847;DHT22;45728;48.788;2.302;2023-05-24T03:07:09;9.90;99.90
59847;DHT22;45728;48.788;2.302;2023-05-24T03:09:35;9.90;99.90
59847;DHT22;45728;48.788;2.302;2023-05-24T03:12:01;10.00;99.90
59847;DHT22;45728;48.788;2.302;2023-05-24T03:14:27;9.90;99.90
59847;DHT22;45728;48.788;2.302;2023-05-24T03:16:53;9.90;99.90
59847;DHT22;45728;48.788;2.302;2023-05-24T03:19:19;9.90;99.90
59847;DHT22;45728;48.788;2.302;2023-05-24T03:21:45;9.90;99.90
59847;DHT22;45728;48.788;2.302;2023-05-24T03:24:12;9.90;99.90
59847;DHT22;45728;48.788;2.302;2023-05-24T03:26:40;9.90;99.90
59847;DHT22;45728;48.788;2.302;2023-05-24T03:29:06;10.00;99.90
59847;DHT22;45728;48.788;2.302;2023-05-24T03:31:32;9.90;99.90
59847;DHT22;45728;48.788;2.302;2023-05-24T03:33:59;9.90;99.90
59847;DHT22;45728;48.788;2.302;2023-05-24T03:36:25;9.80;99.90
59847;DHT22;45728;48.788;2.302;2023-05-24T03:38:52;9.80;99.90
59847;DHT22;45728;48.788;2.302;2023-05-24T03:41:19;9.80;99.90
59847;DHT22;45728;48.788;2.302;2023-05-24T03:43:46;9.80;99.90
59847;DHT22;45728;48.788;2.302;2023-05-24T03:46:12;9.80;99.90
59847;DHT22;45728;48.788;2.302;2023-05-24T03:48:38;9.70;99.90
59847;DHT22;45728;48.788;2.302;2023-05-24T03:51:04;9.70;99.90
59847;DHT22;45728;48.788;2.302;2023-05-24T03:53:30;9.70;99.90
59847;DHT22;45728;48.788;2.302;2023-05-24T03:55:57;9.70;99.90
59847;DHT22;45728;48.788;2.302;2023-05-24T03:58:23;9.70;99.90
59847;DHT22;45728;48.788;2.302;2023-05-24T04:00:49;9.70;99.90
59847;DHT22;45728;48.788;2.302;2023-05-24T04:03:15;9.70;99.90
59847;DHT22;45728;48.788;2.302;2023-05-24T04:05:44;9.70;99.90
59847;DHT22;45728;48.788;2.302;2023-05-24T04:08:11;9.60;99.90
59847;DHT22;45728;48.788;2.302;2023-05-24T04:10:39;9.60;99.90
59847;DHT22;45728;48.788;2.302;2023-05-24T04:13:05;9.60;99.90
59847;DHT22;45728;48.788;2.302;2023-05-24T04:15:31;9.70;99.90
59847;DHT22;45728;48.788;2.302;2023-05-24T04:17:57;9.70;99.90
59847;DHT22;45728;48.788;2.302;2023-05-24T04:20:25;9.70;99.90
59847;DHT22;45728;48.788;2.302;2023-05-24T04:22:52;9.70;99.90
59847;DHT22;45728;48.788;2.302;2023-05-24T04:25:19;9.80;99.90
59847;DHT22;45728;48.788;2.302;2023-05-24T04:27:45;9.70;99.90
59847;DHT22;45728;48.788;2.302;2023-05-24T04:30:14;9.70;99.90
59847;DHT22;45728;48.788;2.302;2023-05-24T04:32:43;9.70;99.90
59847;DHT22;45728;48.788;2.302;2023-05-24T04:35:12;9.70;99.90
59847;DHT22;45728;48.788;2.302;2023-05-24T04:37:39;9.70;99.90
59847;DHT22;45728;48.788;2.302;2023-05-24T04:40:08;9.70;99.90
59847;DHT22;45728;48.788;2.302;2023-05-24T04:42:35;9.80;99.90
59847;DHT22;45728;48.788;2.302;2023-05-24T04:45:01;9.80;99.90
59847;DHT22;45728;48.788;2.302;2023-05-24T04:47:27;9.80;99.90
59847;DHT22;45728;48.788;2.302;2023-05-24T04:49:53;9.80;99.90
59847;DHT22;45728;48.788;2.302;2023-05-24T04:52:19;9.80;99.90
59847;DHT22;45728;48.788;2.302;2023-05-24T04:54:47;9.80;99.90
59847;DHT22;45728;48.788;2.302;2023-05-24T04:57:14;9.90;99.90
59847;DHT22;45728;48.788;2.302;2023-05-24T04:59:40;9.90;99.90
59847;DHT22;45728;48.788;2.302;2023-05-24T05:02:06;9.90;99.90
59847;DHT22;45728;48.788;2.302;2023-05-24T05:04:32;9.90;99.90
59847;DHT22;45728;48.788;2.302;2023-05-24T05:06:58;10.00;99.90
59847;DHT22;45728;48.788;2.302;2023-05-24T05:09:24;10.00;99.90
59847;DHT22;45728;48.788;2.302;2023-05-24T05:11:50;10.00;99.90
59847;DHT22;45728;48.788;2.302;2023-05-24T05:14:16;10.00;99.90
59847;DHT22;45728;48.788;2.302;2023-05-24T05:16:43;10.10;99.90
59847;DHT22;45728;48.788;2.302;2023-05-24T05:19:10;10.10;99.90
59847;DHT22;45728;48.788;2.302;2023-05-24T05:21:36;10.10;99.90
59847;DHT22;45728;48.788;2.302;2023-05-24T05:24:04;10.10;99.90
59847;DHT22;45728;48.788;2.302;2023-05-24T05:26:31;10.10;99.90
59847;DHT22;45728;48.788;2.302;2023-05-24T05:28:57;10.10;99.90
59847;DHT22;45728;48.788;2.302;2023-05-24T05:31:23;10.20;99.90
59847;DHT22;45728;48.788;2.302;2023-05-24T05:33:49;10.20;99.90
59847;DHT22;45728;48.788;2.302;2023-05-24T05:36:16;10.10;99.90
59847;DHT22;45728;48.788;2.302;2023-05-24T05:38:42;10.10;99.90
59847;DHT22;45728;48.788;2.302;2023-05-24T05:41:08;10.20;99.90
59847;DHT22;45728;48.788;2.302;2023-05-24T05:43:34;10.20;99.90
59847;DHT22;45728;48.788;2.302;2023-05-24T05:46:00;10.30;99.90
59847;DHT22;45728;48.788;2.302;2023-05-24T05:48:26;10.30;99.90
59847;DHT22;45728;48.788;2.302;2023-05-24T05:50:52;10.40;99.90
59847;DHT22;45728;48.788;2.302;2023-05-24T05:53:19;10.40;99.90
59847;DHT22;45728;48.788;2.302;2023-05-24T05:55:45;10.70;99.90
59847;DHT22;45728;48.788;2.302;2023-05-24T05:58:11;10.80;99.90
59847;DHT22;45728;48.788;2.302;2023-05-24T06:00:38;11.00;99.90
59847;DHT22;45728;48.788;2.302;2023-05-24T06:03:05;11.20;99.90
59847;DHT22;45728;48.788;2.302;2023-05-24T06:05:31;11.40;99.90
59847;DHT22;45728;48.788;2.302;2023-05-24T06:07:57;11.60;99.90
59847;DHT22;45728;48.788;2.302;2023-05-24T06:10:23;11.80;99.90
59847;DHT22;45728;48.788;2.302;2023-05-24T06:12:49;11.90;99.90
59847;DHT22;45728;48.788;2.302;2023-05-24T06:15:15;12.10;99.90
59847;DHT22;45728;48.788;2.302;2023-05-24T06:17:41;12.20;99.90
59847;DHT22;45728;48.788;2.302;2023-05-24T06:20:09;12.60;99.90
59847;DHT22;45728;48.788;2.302;2023-05-24T06:22:38;12.40;99.90
59847;DHT22;45728;48.788;2.302;2023-05-24T06:25:04;12.50;99.90
59847;DHT22;45728;48.788;2.302;2023-05-24T06:27:31;12.80;99.90
59847;DHT22;45728;48.788;2.302;2023-05-24T06:29:57;13.00;99.90
59847;DHT22;45728;48.788;2.302;2023-05-24T06:32:23;13.30;99.90
59847;DHT22;45728;48.788;2.302;2023-05-24T06:34:49;13.30;99.90
59847;DHT22;45728;48.788;2.302;2023-05-24T06:37:15;13.20;99.90
59847;DHT22;45728;48.788;2.302;2023-05-24T06:39:41;13.30;99.90
59847;DHT22;45728;48.788;2.302;2023-05-24T06:42:07;13.60;99.90
59847;DHT22;45728;48.788;2.302;2023-05-24T06:44:33;13.40;99.90
59847;DHT22;45728;48.788;2.302;2023-05-24T06:47:00;12.90;99.90
59847;DHT22;45728;48.788;2.302;2023-05-24T06:49:26;12.70;99.90
59847;DHT22;45728;48.788;2.302;2023-05-24T06:51:53;12.70;99.90
59847;DHT22;45728;48.788;2.302;2023-05-24T06:54:19;12.60;99.90
59847;DHT22;45728;48.788;2.302;2023-05-24T06:56:45;12.70;99.90
59847;DHT22;45728;48.788;2.302;2023-05-24T06:59:11;12.60;99.90
59847;DHT22;45728;48.788;2.302;2023-05-24T07:01:38;12.60;99.90
59847;DHT22;45728;48.788;2.302;2023-05-24T07:04:05;12.30;99.90
59847;DHT22;45728;48.788;2.302;2023-05-24T07:06:31;12.20;99.90
59847;DHT22;45728;48.788;2.302;2023-05-24T07:08:58;12.10;99.90
59847;DHT22;45728;48.788;2.302;2023-05-24T07:11:24;12.10;99.90
59847;DHT22;45728;48.788;2.302;2023-05-24T07:13:50;12.20;99.90
59847;DHT22;45728;48.788;2.302;2023-05-24T07:16:16;12.30;99.90
59847;DHT22;45728;48.788;2.302;2023-05-24T07:18:42;12.30;99.90
59847;DHT22;45728;48.788;2.302;2023-05-24T07:21:08;12.40;99.90
59847;DHT22;45728;48.788;2.302;2023-05-24T07:23:34;12.60;99.90
59847;DHT22;45728;48.788;2.302;2023-05-24T07:26:02;12.50;99.90
59847;DHT22;45728;48.788;2.302;2023-05-24T07:28:29;12.60;99.90
59847;DHT22;45728;48.788;2.302;2023-05-24T07:30:55;12.50;99.90
59847;DHT22;45728;48.788;2.302;2023-05-24T07:33:21;12.60;99.90
59847;DHT22;45728;48.788;2.302;2023-05-24T07:35:47;12.60;99.90
59847;DHT22;45728;48.788;2.302;2023-05-24T07:38:17;12.60;99.90
59847;DHT22;45728;48.788;2.302;2023-05-24T07:40:43;12.60;99.90
59847;DHT22;45728;48.788;2.302;2023-05-24T07:43:09;12.70;99.90
59847;DHT22;45728;48.788;2.302;2023-05-24T07:45:35;12.70;99.90
59847;DHT22;45728;48.788;2.302;2023-05-24T07:48:02;12.60;99.90
59847;DHT22;45728;48.788;2.302;2023-05-24T07:50:28;12.60;99.90
59847;DHT22;45728;48.788;2.302;2023-05-24T07:52:56;12.90;99.90
59847;DHT22;45728;48.788;2.302;2023-05-24T07:55:22;13.10;99.90
59847;DHT22;45728;48.788;2.302;2023-05-24T07:57:48;13.10;99.90
59847;DHT22;45728;48.788;2.302;2023-05-24T08:00:14;13.10;99.90
59847;DHT22;45728;48.788;2.302;2023-05-24T08:02:41;13.00;99.90
59847;DHT22;45728;48.788;2.302;2023-05-24T08:05:11;13.20;99.90
59847;DHT22;45728;48.788;2.302;2023-05-24T08:07:38;13.30;99.90
59847;DHT22;45728;48.788;2.302;2023-05-24T08:10:06;13.30;99.90
59847;DHT22;45728;48.788;2.302;2023-05-24T08:12:32;13.20;99.90
59847;DHT22;45728;48.788;2.302;2023-05-24T08:14:58;13.30;99.90
59847;DHT22;45728;48.788;2.302;2023-05-24T08:17:25;13.40;99.90
59847;DHT22;45728;48.788;2.302;2023-05-24T08:19:51;13.30;99.90
59847;DHT22;45728;48.788;2.302;2023-05-24T08:22:17;13.30;99.90
59847;DHT22;45728;48.788;2.302;2023-05-24T08:24:44;13.50;99.90
59847;DHT22;45728;48.788;2.302;2023-05-24T08:27:10;13.80;99.90
59847;DHT22;45728;48.788;2.302;2023-05-24T08:29:38;13.50;99.90
59847;DHT22;45728;48.788;2.302;2023-05-24T08:32:04;13.70;99.90
59847;DHT22;45728;48.788;2.302;2023-05-24T08:34:35;13.80;99.90
59847;DHT22;45728;48.788;2.302;2023-05-24T08:37:03;13.80;99.90
59847;DHT22;45728;48.788;2.302;2023-05-24T08:39:29;13.90;99.90
59847;DHT22;45728;48.788;2.302;2023-05-24T08:41:57;13.90;99.90
59847;DHT22;45728;48.788;2.302;2023-05-24T08:44:24;14.00;99.90
59847;DHT22;45728;48.788;2.302;2023-05-24T08:46:51;14.00;99.90
59847;DHT22;45728;48.788;2.302;2023-05-24T08:49:18;14.10;99.90
59847;DHT22;45728;48.788;2.302;2023-05-24T08:51:44;14.20;99.90
59847;DHT22;45728;48.788;2.302;2023-05-24T08:54:11;14.20;99.90
59847;DHT22;45728;48.788;2.302;2023-05-24T08:56:39;14.40;99.90
59847;DHT22;45728;48.788;2.302;2023-05-24T08:59:09;14.50;99.90
59847;DHT22;45728;48.788;2.302;2023-05-24T09:01:39;14.70;99.90
59847;DHT22;45728;48.788;2.302;2023-05-24T09:04:06;15.00;99.90
59847;DHT22;45728;48.788;2.302;2023-05-24T09:06:33;14.90;99.90
59847;DHT22;45728;48.788;2.302;2023-05-24T09:09:01;15.00;99.90
59847;DHT22;45728;48.788;2.302;2023-05-24T09:11:28;15.00;99.90
59847;DHT22;45728;48.788;2.302;2023-05-24T09:13:56;14.90;99.90
59847;DHT22;45728;48.788;2.302;2023-05-24T09:16:22;15.10;99.90
59847;DHT22;45728;48.788;2.302;2023-05-24T09:18:48;15.10;99.90
59847;DHT22;45728;48.788;2.302;2023-05-24T09:21:14;15.10;99.90
59847;DHT22;45728;48.788;2.302;2023-05-24T09:23:41;15.00;99.90
59847;DHT22;45728;48.788;2.302;2023-05-24T09:26:08;14.80;99.90
59847;DHT22;45728;48.788;2.302;2023-05-24T09:28:36;15.00;99.90
59847;DHT22;45728;48.788;2.302;2023-05-24T09:31:02;15.30;99.90
59847;DHT22;45728;48.788;2.302;2023-05-24T09:33:30;15.50;99.90
59847;DHT22;45728;48.788;2.302;2023-05-24T09:36:00;15.50;99.40
59847;DHT22;45728;48.788;2.302;2023-05-24T09:38:26;15.80;99.60
59847;DHT22;45728;48.788;2.302;2023-05-24T09:43:30;16.10;99.50
59847;DHT22;45728;48.788;2.302;2023-05-24T09:45:56;16.20;98.90
59847;DHT22;45728;48.788;2.302;2023-05-24T09:48:24;16.00;98.90
59847;DHT22;45728;48.788;2.302;2023-05-24T09:51:17;15.90;98.80
59847;DHT22;45728;48.788;2.302;2023-05-24T09:53:44;16.20;97.40
59847;DHT22;45728;48.788;2.302;2023-05-24T09:56:13;16.50;97.50
59847;DHT22;45728;48.788;2.302;2023-05-24T09:58:39;16.60;96.90
59847;DHT22;45728;48.788;2.302;2023-05-24T10:01:10;16.50;97.10
59847;DHT22;45728;48.788;2.302;2023-05-24T10:03:37;16.60;97.60
59847;DHT22;45728;48.788;2.302;2023-05-24T10:06:05;16.80;98.20
59847;DHT22;45728;48.788;2.302;2023-05-24T10:08:33;17.30;97.00
59847;DHT22;45728;48.788;2.302;2023-05-24T10:11:02;17.50;97.90
59847;DHT22;45728;48.788;2.302;2023-05-24T10:13:31;17.30;96.60
59847;DHT22;45728;48.788;2.302;2023-05-24T10:15:57;17.50;95.70
59847;DHT22;45728;48.788;2.302;2023-05-24T10:18:23;17.50;94.80
59847;DHT22;45728;48.788;2.302;2023-05-24T10:20:50;17.40;94.50
59847;DHT22;45728;48.788;2.302;2023-05-24T10:23:20;17.20;94.70
59847;DHT22;45728;48.788;2.302;2023-05-24T10:25:58;17.40;95.10
59847;DHT22;45728;48.788;2.302;2023-05-24T10:28:30;17.90;95.20
59847;DHT22;45728;48.788;2.302;2023-05-24T10:33:34;17.90;94.50
59847;DHT22;45728;48.788;2.302;2023-05-24T10:36:06;17.90;93.90
59847;DHT22;45728;48.788;2.302;2023-05-24T10:38:37;18.00;92.90
59847;DHT22;45728;48.788;2.302;2023-05-24T10:41:05;18.50;92.90
59847;DHT22;45728;48.788;2.302;2023-05-24T10:43:36;18.30;93.00
59847;DHT22;45728;48.788;2.302;2023-05-24T10:46:02;18.40;92.50
59847;DHT22;45728;48.788;2.302;2023-05-24T10:48:32;18.20;92.50
59847;DHT22;45728;48.788;2.302;2023-05-24T10:51:35;18.10;93.10
59847;DHT22;45728;48.788;2.302;2023-05-24T10:54:16;18.60;92.20
59847;DHT22;45728;48.788;2.302;2023-05-24T10:56:46;19.10;92.60
59847;DHT22;45728;48.788;2.302;2023-05-24T10:59:32;18.90;91.90
59847;DHT22;45728;48.788;2.302;2023-05-24T11:02:04;19.40;93.20
59847;DHT22;45728;48.788;2.302;2023-05-24T11:04:32;20.00;91.30
59847;DHT22;45728;48.788;2.302;2023-05-24T11:07:03;19.60;91.70
59847;DHT22;45728;48.788;2.302;2023-05-24T11:09:39;19.60;90.90
59847;DHT22;45728;48.788;2.302;2023-05-24T11:12:16;19.40;91.40
59847;DHT22;45728;48.788;2.302;2023-05-24T11:14:50;19.40;91.20
59847;DHT22;45728;48.788;2.302;2023-05-24T11:17:21;20.00;92.30
59847;DHT22;45728;48.788;2.302;2023-05-24T11:19:52;20.00;90.70
59847;DHT22;45728;48.788;2.302;2023-05-24T11:22:20;20.10;90.70
59847;DHT22;45728;48.788;2.302;2023-05-24T11:24:46;20.40;90.20
59847;DHT22;45728;48.788;2.302;2023-05-24T11:27:13;19.70;90.80
59847;DHT22;45728;48.788;2.302;2023-05-24T11:29:44;19.80;92.20
59847;DHT22;45728;48.788;2.302;2023-05-24T11:32:18;19.70;90.70
59847;DHT22;45728;48.788;2.302;2023-05-24T11:34:45;19.50;91.30
59847;DHT22;45728;48.788;2.302;2023-05-24T11:37:12;20.10;92.50
59847;DHT22;45728;48.788;2.302;2023-05-24T11:39:39;20.60;91.20
59847;DHT22;45728;48.788;2.302;2023-05-24T11:42:07;20.60;91.40
59847;DHT22;45728;48.788;2.302;2023-05-24T11:44:34;20.80;90.70
59847;DHT22;45728;48.788;2.302;2023-05-24T11:47:06;20.00;91.20
59847;DHT22;45728;48.788;2.302;2023-05-24T11:49:32;20.20;91.50
59847;DHT22;45728;48.788;2.302;2023-05-24T11:51:58;20.20;91.80
59847;DHT22;45728;48.788;2.302;2023-05-24T11:54:28;20.70;92.20
59847;DHT22;45728;48.788;2.302;2023-05-24T11:56:54;20.30;91.40
59847;DHT22;45728;48.788;2.302;2023-05-24T11:59:26;20.40;91.80
59847;DHT22;45728;48.788;2.302;2023-05-24T12:02:05;21.20;91.30
59847;DHT22;45728;48.788;2.302;2023-05-24T12:04:33;20.30;91.10
59847;DHT22;45728;48.788;2.302;2023-05-24T12:07:00;20.20;91.70
59847;DHT22;45728;48.788;2.302;2023-05-24T12:09:26;19.80;91.60
59847;DHT22;45728;48.788;2.302;2023-05-24T12:11:53;20.10;91.70
59847;DHT22;45728;48.788;2.302;2023-05-24T12:14:38;19.90;91.80
59847;DHT22;45728;48.788;2.302;2023-05-24T12:17:04;19.80;92.20
59847;DHT22;45728;48.788;2.302;2023-05-24T12:19:32;20.20;92.20
59847;DHT22;45728;48.788;2.302;2023-05-24T12:22:03;20.20;92.20
59847;DHT22;45728;48.788;2.302;2023-05-24T12:24:34;20.60;91.70
59847;DHT22;45728;48.788;2.302;2023-05-24T12:27:03;20.60;91.80
59847;DHT22;45728;48.788;2.302;2023-05-24T12:29:37;20.80;91.70
59847;DHT22;45728;48.788;2.302;2023-05-24T12:32:05;20.40;91.90
59847;DHT22;45728;48.788;2.302;2023-05-24T12:34:36;20.20;92.00
59847;DHT22;45728;48.788;2.302;2023-05-24T12:37:02;19.90;92.40
59847;DHT22;45728;48.788;2.302;2023-05-24T12:39:29;20.10;92.30
59847;DHT22;45728;48.788;2.302;2023-05-24T12:42:03;20.40;92.20
59847;DHT22;45728;48.788;2.302;2023-05-24T12:44:36;19.80;92.40
59847;DHT22;45728;48.788;2.302;2023-05-24T12:47:05;19.50;92.60
59847;DHT22;45728;48.788;2.302;2023-05-24T12:49:31;19.80;93.10
59847;DHT22;45728;48.788;2.302;2023-05-24T12:51:58;20.00;92.50
59847;DHT22;45728;48.788;2.302;2023-05-24T12:54:26;20.00;93.20
59847;DHT22;45728;48.788;2.302;2023-05-24T12:56:54;20.60;92.30
59847;DHT22;45728;48.788;2.302;2023-05-24T12:59:21;20.80;92.40
59847;DHT22;45728;48.788;2.302;2023-05-24T13:01:47;21.00;92.20
59847;DHT22;45728;48.788;2.302;2023-05-24T13:04:18;20.30;92.10
59847;DHT22;45728;48.788;2.302;2023-05-24T13:06:45;19.70;92.50
59847;DHT22;45728;48.788;2.302;2023-05-24T13:09:13;20.00;92.80
59847;DHT22;45728;48.788;2.302;2023-05-24T13:11:39;20.50;92.50
59847;DHT22;45728;48.788;2.302;2023-05-24T13:14:05;20.50;92.30
59847;DHT22;45728;48.788;2.302;2023-05-24T13:16:32;20.50;92.50
59847;DHT22;45728;48.788;2.302;2023-05-24T13:18:58;20.50;92.60
59847;DHT22;45728;48.788;2.302;2023-05-24T13:21:24;20.30;92.80
59847;DHT22;45728;48.788;2.302;2023-05-24T13:23:50;20.60;92.60
59847;DHT22;45728;48.788;2.302;2023-05-24T13:26:17;20.50;92.50
59847;DHT22;45728;48.788;2.302;2023-05-24T13:28:43;19.90;92.70
59847;DHT22;45728;48.788;2.302;2023-05-24T13:31:09;20.00;93.60
59847;DHT22;45728;48.788;2.302;2023-05-24T13:33:35;20.50;93.10
59847;DHT22;45728;48.788;2.302;2023-05-24T13:36:02;20.50;92.70
59847;DHT22;45728;48.788;2.302;2023-05-24T13:38:28;20.50;92.70
59847;DHT22;45728;48.788;2.302;2023-05-24T13:40:54;20.60;92.40
59847;DHT22;45728;48.788;2.302;2023-05-24T13:43:21;20.40;92.50
59847;DHT22;45728;48.788;2.302;2023-05-24T13:45:47;20.10;93.10
59847;DHT22;45728;48.788;2.302;2023-05-24T13:48:13;20.30;93.10
59847;DHT22;45728;48.788;2.302;2023-05-24T13:50:39;20.20;93.00
59847;DHT22;45728;48.788;2.302;2023-05-24T13:53:06;20.30;93.00
59847;DHT22;45728;48.788;2.302;2023-05-24T13:55:33;20.60;92.90
59847;DHT22;45728;48.788;2.302;2023-05-24T13:58:00;20.50;92.90
59847;DHT22;45728;48.788;2.302;2023-05-24T14:00:27;20.70;93.20
59847;DHT22;45728;48.788;2.302;2023-05-24T14:02:53;21.00;92.70
59847;DHT22;45728;48.788;2.302;2023-05-24T14:05:20;20.80;93.00
59847;DHT22;45728;48.788;2.302;2023-05-24T14:07:46;20.30;93.00
59847;DHT22;45728;48.788;2.302;2023-05-24T14:10:12;20.10;93.10
59847;DHT22;45728;48.788;2.302;2023-05-24T14:12:39;20.10;93.40
59847;DHT22;45728;48.788;2.302;2023-05-24T14:15:05;20.40;93.20
59847;DHT22;45728;48.788;2.302;2023-05-24T14:17:32;20.20;93.50
59847;DHT22;45728;48.788;2.302;2023-05-24T14:19:58;20.30;93.30
59847;DHT22;45728;48.788;2.302;2023-05-24T14:22:24;20.30;93.30
59847;DHT22;45728;48.788;2.302;2023-05-24T14:24:51;19.90;93.60
59847;DHT22;45728;48.788;2.302;2023-05-24T14:27:18;20.10;93.70
59847;DHT22;45728;48.788;2.302;2023-05-24T14:29:44;20.70;93.10
59847;DHT22;45728;48.788;2.302;2023-05-24T14:32:10;20.60;92.90
59847;DHT22;45728;48.788;2.302;2023-05-24T14:34:36;20.50;93.20
59847;DHT22;45728;48.788;2.302;2023-05-24T14:37:02;20.30;93.30
59847;DHT22;45728;48.788;2.302;2023-05-24T14:39:29;20.70;93.00
59847;DHT22;45728;48.788;2.302;2023-05-24T14:41:55;20.70;92.90
59847;DHT22;45728;48.788;2.302;2023-05-24T14:44:21;20.50;92.90
59847;DHT22;45728;48.788;2.302;2023-05-24T14:46:47;20.60;93.00
59847;DHT22;45728;48.788;2.302;2023-05-24T14:49:13;20.80;92.90
59847;DHT22;45728;48.788;2.302;2023-05-24T14:51:40;20.50;92.90
59847;DHT22;45728;48.788;2.302;2023-05-24T14:54:06;20.30;93.20
59847;DHT22;45728;48.788;2.302;2023-05-24T14:56:32;20.10;93.10
59847;DHT22;45728;48.788;2.302;2023-05-24T14:58:58;20.30;93.10
59847;DHT22;45728;48.788;2.302;2023-05-24T15:01:24;20.50;93.20
59847;DHT22;45728;48.788;2.302;2023-05-24T15:03:51;20.70;92.90
59847;DHT22;45728;48.788;2.302;2023-05-24T15:06:17;20.60;93.00
59847;DHT22;45728;48.788;2.302;2023-05-24T15:08:43;20.70;92.80
59847;DHT22;45728;48.788;2.302;2023-05-24T15:11:09;20.70;92.80
59847;DHT22;45728;48.788;2.302;2023-05-24T15:13:36;20.60;92.80
59847;DHT22;45728;48.788;2.302;2023-05-24T15:16:03;20.30;92.90
59847;DHT22;45728;48.788;2.302;2023-05-24T15:18:30;20.30;93.00
59847;DHT22;45728;48.788;2.302;2023-05-24T15:20:56;20.50;93.00
59847;DHT22;45728;48.788;2.302;2023-05-24T15:23:23;20.40;93.30
59847;DHT22;45728;48.788;2.302;2023-05-24T15:25:50;20.40;93.20
59847;DHT22;45728;48.788;2.302;2023-05-24T15:28:16;20.50;93.30
59847;DHT22;45728;48.788;2.302;2023-05-24T15:30:43;20.40;93.10
59847;DHT22;45728;48.788;2.302;2023-05-24T15:33:11;20.10;93.10
59847;DHT22;45728;48.788;2.302;2023-05-24T15:35:37;19.90;93.40
59847;DHT22;45728;48.788;2.302;2023-05-24T15:38:04;19.80;93.60
59847;DHT22;45728;48.788;2.302;2023-05-24T15:40:30;19.90;93.50
59847;DHT22;45728;48.788;2.302;2023-05-24T15:42:56;19.90;93.80
59847;DHT22;45728;48.788;2.302;2023-05-24T15:45:23;19.90;93.50
59847;DHT22;45728;48.788;2.302;2023-05-24T15:47:49;19.70;93.70
59847;DHT22;45728;48.788;2.302;2023-05-24T15:50:15;19.70;94.10
59847;DHT22;45728;48.788;2.302;2023-05-24T15:52:41;19.80;94.00
59847;DHT22;45728;48.788;2.302;2023-05-24T15:55:08;19.60;94.10
59847;DHT22;45728;48.788;2.302;2023-05-24T15:57:34;19.40;94.30